RJOP(METAR)
03/23 14:00
METAR RJOP 230500Z 03006KT 9999 FEW030 BKN130 11/04 Q1017 RMK 1CU030
7AC130 A3003=
戻る
トップページへ戻る
IMOC Co,.Ltd.